Camano Island, WA

2:56 AM PDT on June 03, 2015 (GMT -0700)
Indian Beach | | Change Station
CLOSE
Current Station
Personal Weather Station
Location: Camano Island, WA
Elevation: 135 ft
Nearby Weather Stations

Elev 135 ft 48.17 °N, 122.52 °W | Updated 36 seconds ago

Overcast
Overcast
52.1 °F
Feels Like 52.1 °F
N
1.0
Wind Variable Wind from NW
Gusts 2.0 mph

Today
High -- | Low -- °F
--% Chance of Precip.
Yesterday
High -- | Low -- °F
Precip. -- in
5:12 AM 9:04 PM
Full, 99% visible
Pressure 30.10 in
Visibility 10.0 miles
Clouds Few 1000 ft
Mostly Cloudy 2500 ft
Mostly Cloudy 3500 ft
Dew Point 51 °F
Humidity 97%
Rainfall 0.00 in
Snow Depth Not available.
UV 0 out of 12
Pollen .10 out of 12
Air Quality Not available.
Flu Activity Sporadic
METAR KNUW 030856Z 23008KT 10SM FEW010 BKN025 BKN035 12/11 A3010 RMK AO2 SLP192 T01220111 56001 $

More Conditions Fewer Conditions

Pressure 30.10 in
Visibility 10.0 miles
Clouds Few 1000 ft
Mostly Cloudy 2500 ft
Mostly Cloudy 3500 ft
Dew Point 51 °F
Humidity 97%
Rainfall 0.00 in
Snow Depth Not available.
UV 0 out of 12
Pollen .10 out of 12
Air Quality Not available.
Flu Activity Sporadic
METAR KNUW 030856Z 23008KT 10SM FEW010 BKN025 BKN035 12/11 A3010 RMK AO2 SLP192 T01220111 56001 $

More Conditions Fewer Conditions

10-Day Weather Forecast

×

Almanac

Astronomy

Jun. 03, 2015 Rise Set
Actual Time
Civil Twilight
Nautical Twilight
Astronomical Twilight
Moon
Length of Visible Light
Length of Day
Tomorrow will be .
, % of the Moon is Illuminated

Today's Extremes

State Highs State Lows

Community

WunderPhotos

Upload Photos

1,826,197 photos uploaded!

WunderBlogs® & News

Nearby

Air Quality

  Air Quality AQ Index Pollutant
Not available.

Snow Depth

Station Depth Elevation

Earthquake Activity

City Distance Mag. Time & Date
Minimum magnitude displayed is 2.5.

Coastal Water Temperatures

Place Temperature

Stations

Nearby Weather Stations

Station Location Temp. Windchill Dew Point Humidity Wind Precip. Elev Updated Type